Time;durP1;ratioP1;P1;durP2;ratioP2;P2;SDS_P1;SDS_P2;PMS_P1;PMS_P2;Temp;Humidity;BMP_temperature;BMP_pressure;BME280_temperature;BME280_humidity;BME280_pressure;Samples;Min_cycle;Max_cycle;Signal;HPM_P1;HPM_P2
2021/04/17 00:02:06;;;;;;;10.43;1.50;;;5.10;90.80;;;;;;5081617;28;20723;-72
2021/04/17 00:04:33;;;;;;;2.95;1.50;;;5.10;91.00;;;;;;5078679;28;20214;-71
2021/04/17 00:06:59;;;;;;;2.55;1.50;;;5.00;91.20;;;;;;5063413;28;20211;-72
2021/04/17 00:09:27;;;;;;;4.97;1.80;;;5.00;91.20;;;;;;5059193;28;20195;-72
2021/04/17 00:11:57;;;;;;;4.53;1.55;;;5.00;91.30;;;;;;5084142;28;20299;-72
2021/04/17 00:14:29;;;;;;;8.85;1.60;;;5.00;91.30;;;;;;5078306;28;20208;-72
2021/04/17 00:16:56;;;;;;;8.50;1.60;;;5.00;91.50;;;;;;5082496;28;20205;-72
2021/04/17 00:19:22;;;;;;;2.03;1.45;;;4.90;91.60;;;;;;5083247;28;20249;-72
2021/04/17 00:21:47;;;;;;;4.90;1.50;;;4.80;91.90;;;;;;5077391;28;20666;-72
2021/04/17 00:24:13;;;;;;;3.30;1.52;;;4.70;92.00;;;;;;5077195;28;20192;-72
2021/04/17 00:26:39;;;;;;;5.28;1.65;;;4.70;92.40;;;;;;5084442;28;20680;-73
2021/04/17 00:29:05;;;;;;;3.72;1.42;;;4.50;92.40;;;;;;5076553;28;20575;-72
2021/04/17 00:31:32;;;;;;;5.35;1.55;;;4.50;92.70;;;;;;5085257;28;20192;-71
2021/04/17 00:33:58;;;;;;;3.33;1.67;;;4.50;92.60;;;;;;5086097;28;20195;-71
2021/04/17 00:36:23;;;;;;;3.33;1.30;;;4.40;92.80;;;;;;5083907;28;20200;-71
2021/04/17 00:38:49;;;;;;;8.18;1.52;;;4.30;93.60;;;;;;5087679;28;20201;-70
2021/04/17 00:41:15;;;;;;;2.72;1.45;;;4.00;94.30;;;;;;5065251;28;20196;-72
2021/04/17 00:43:41;;;;;;;2.92;1.45;;;3.80;94.70;;;;;;5082590;28;20365;-71
2021/04/17 00:46:07;;;;;;;2.63;1.30;;;3.70;95.60;;;;;;5085910;28;20307;-72
2021/04/17 00:48:33;;;;;;;3.33;1.63;;;3.40;96.30;;;;;;5078804;28;20220;-72
2021/04/17 00:50:59;;;;;;;2.67;1.55;;;3.30;96.30;;;;;;5079050;28;20208;-71
2021/04/17 00:53:25;;;;;;;4.03;1.70;;;3.30;97.10;;;;;;5084467;28;20186;-73
2021/04/17 00:55:51;;;;;;;3.45;1.70;;;3.20;96.90;;;;;;5080528;28;20550;-73
2021/04/17 00:58:16;;;;;;;2.55;1.40;;;3.10;97.50;;;;;;5082400;28;20934;-73
2021/04/17 01:00:42;;;;;;;5.55;1.80;;;3.00;98.10;;;;;;5079477;28;20224;-71
2021/04/17 01:03:11;;;;;;;2.88;1.40;;;3.00;97.80;;;;;;5078492;28;20207;-71
2021/04/17 01:05:39;;;;;;;7.15;1.80;;;3.00;98.30;;;;;;5082132;28;20283;-73
2021/04/17 01:08:14;;;;;;;3.88;1.42;;;2.90;98.80;;;;;;5085362;28;20836;-72
2021/04/17 01:10:47;;;;;;;3.65;1.35;;;2.80;99.80;;;;;;5081385;28;20313;-73
2021/04/17 01:13:14;;;;;;;10.85;1.67;;;2.80;99.80;;;;;;5082259;28;20217;-73
2021/04/17 01:15:41;;;;;;;6.88;1.40;;;2.70;99.90;;;;;;5064543;28;20196;-72
2021/04/17 01:18:07;;;;;;;4.82;1.40;;;2.70;99.90;;;;;;5083278;28;20287;-72
2021/04/17 01:20:46;;;;;;;2.92;1.60;;;2.60;99.90;;;;;;5081041;28;20233;-69
2021/04/17 01:23:30;;;;;;;2.88;1.50;;;2.70;99.90;;;;;;5081618;28;20188;-72
2021/04/17 01:26:07;;;;;;;8.70;1.60;;;2.70;99.90;;;;;;5083509;28;20215;-71
2021/04/17 01:28:39;;;;;;;3.17;1.30;;;2.80;99.90;;;;;;5060587;28;20568;-69
2021/04/17 01:31:07;;;;;;;1.65;1.30;;;2.80;99.90;;;;;;5081009;28;20203;-73
2021/04/17 01:33:35;;;;;;;1.98;1.35;;;2.80;99.90;;;;;;5081244;28;20925;-69
2021/04/17 01:36:03;;;;;;;1.73;1.33;;;2.90;99.90;;;;;;5078155;28;20669;-72
2021/04/17 01:38:40;;;;;;;3.00;1.60;;;3.10;99.90;;;;;;5080889;28;20195;-72
2021/04/17 01:41:37;;;;;;;3.13;1.30;;;3.20;99.90;;;;;;5079714;28;20196;-72
2021/04/17 01:44:40;;;;;;;4.53;1.30;;;3.20;99.90;;;;;;5080174;28;20268;-72
2021/04/17 01:47:09;;;;;;;2.90;1.27;;;3.10;99.90;;;;;;4962328;28;20207;-71
2021/04/17 01:49:39;;;;;;;4.10;1.75;;;3.10;99.90;;;;;;4962354;28;20279;-72
2021/04/17 01:52:07;;;;;;;3.97;1.33;;;3.10;99.90;;;;;;4964151;28;20202;-72
2021/04/17 01:54:43;;;;;;;9.65;1.38;;;3.00;99.90;;;;;;4945463;28;20283;-71
2021/04/17 01:57:12;;;;;;;2.72;1.40;;;3.00;99.90;;;;;;4965447;28;20238;-72
2021/04/17 01:59:39;;;;;;;5.60;1.65;;;3.00;99.90;;;;;;4963738;28;20322;-72
2021/04/17 02:02:05;;;;;;;4.95;1.48;;;3.00;99.90;;;;;;4961254;28;20694;-71
2021/04/17 02:04:33;;;;;;;3.03;1.30;;;3.00;99.90;;;;;;4962651;28;20220;-71
2021/04/17 02:06:59;;;;;;;2.42;1.30;;;3.00;99.90;;;;;;4961335;28;20314;-70
2021/04/17 02:09:25;;;;;;;2.25;1.40;;;3.00;99.90;;;;;;4963336;28;20546;-71
2021/04/17 02:11:50;;;;;;;2.05;1.10;;;2.90;99.90;;;;;;4947157;28;20372;-69
2021/04/17 02:14:17;;;;;;;1.60;1.13;;;3.00;99.90;;;;;;4962518;28;20235;-72
2021/04/17 02:17:06;;;;;;;3.60;1.38;;;3.10;99.90;;;;;;4941976;28;20700;-71
2021/04/17 02:19:34;;;;;;;4.55;1.67;;;3.10;99.90;;;;;;4962817;28;20331;-72
2021/04/17 02:22:01;;;;;;;4.28;1.60;;;3.10;99.90;;;;;;5072718;28;20283;-71
2021/04/17 02:24:27;;;;;;;3.22;1.58;;;3.10;99.90;;;;;;5075574;28;20600;-71
2021/04/17 02:26:54;;;;;;;3.67;1.42;;;3.10;99.90;;;;;;5081988;28;20589;-72
2021/04/17 02:29:21;;;;;;;5.88;1.52;;;3.10;99.90;;;;;;5077226;28;20374;-72
2021/04/17 02:31:47;;;;;;;2.92;1.48;;;3.10;99.90;;;;;;5084846;28;20665;-71
2021/04/17 02:34:13;;;;;;;4.70;1.45;;;3.10;99.90;;;;;;5080498;28;20197;-71
2021/04/17 02:36:39;;;;;;;5.85;1.52;;;3.10;99.90;;;;;;5068755;28;20199;-71
2021/04/17 02:39:05;;;;;;;1.92;1.30;;;3.10;99.90;;;;;;5077934;28;20199;-71
2021/04/17 02:41:31;;;;;;;2.17;1.30;;;3.00;99.90;;;;;;5081110;28;20200;-72
2021/04/17 02:43:57;;;;;;;1.90;1.50;;;3.00;99.90;;;;;;5084946;28;20275;-71
2021/04/17 02:46:22;;;;;;;2.85;1.17;;;3.00;99.90;;;;;;5084281;28;20282;-71
2021/04/17 02:48:48;;;;;;;2.40;1.33;;;2.90;99.90;;;;;;5081280;28;20314;-72
2021/04/17 02:51:14;;;;;;;3.92;1.50;;;2.90;99.90;;;;;;5085932;28;20254;-71
2021/04/17 02:53:40;;;;;;;1.40;1.30;;;3.00;99.90;;;;;;5083953;28;20203;-71
2021/04/17 02:56:06;;;;;;;5.35;1.40;;;3.00;99.90;;;;;;5086690;28;20300;-72
2021/04/17 02:58:32;;;;;;;2.15;1.38;;;3.00;99.90;;;;;;5065117;28;20192;-69
2021/04/17 03:00:58;;;;;;;3.45;1.42;;;3.00;99.90;;;;;;5081262;28;20221;-71
2021/04/17 03:03:24;;;;;;;3.40;1.40;;;2.90;99.90;;;;;;5080774;28;20264;-71
2021/04/17 03:05:49;;;;;;;5.53;1.80;;;3.00;99.90;;;;;;5061526;28;20197;-71
2021/04/17 03:08:15;;;;;;;3.38;1.90;;;3.00;99.90;;;;;;5081415;28;20206;-71
2021/04/17 03:10:41;;;;;;;2.38;1.50;;;3.00;99.90;;;;;;5079677;28;20211;-72
2021/04/17 03:13:07;;;;;;;1.42;1.30;;;2.90;99.90;;;;;;5085285;28;20229;-71
2021/04/17 03:15:33;;;;;;;1.63;1.20;;;2.80;99.90;;;;;;5085614;28;20575;-70
2021/04/17 03:17:59;;;;;;;2.05;1.45;;;2.90;99.90;;;;;;5086068;28;20222;-72
2021/04/17 03:20:25;;;;;;;2.38;1.35;;;2.90;99.90;;;;;;5083908;28;20196;-69
2021/04/17 03:22:51;;;;;;;1.90;1.60;;;2.90;99.90;;;;;;5088428;28;20199;-72
2021/04/17 03:25:16;;;;;;;2.92;1.23;;;2.80;99.90;;;;;;5082258;28;20641;-72
2021/04/17 03:27:43;;;;;;;4.85;1.50;;;2.70;99.90;;;;;;5084228;28;20195;-72
2021/04/17 03:30:12;;;;;;;4.40;1.50;;;2.90;99.90;;;;;;5085070;28;20295;-72
2021/04/17 03:32:38;;;;;;;3.38;1.50;;;2.90;99.90;;;;;;5085233;28;20207;-72
2021/04/17 03:35:08;;;;;;;1.73;1.40;;;2.90;99.90;;;;;;5082728;28;20211;-72
2021/04/17 03:37:35;;;;;;;5.78;1.58;;;2.90;99.90;;;;;;5084301;28;20196;-72
2021/04/17 03:40:01;;;;;;;1.95;1.30;;;2.80;99.90;;;;;;5070564;28;20261;-71
2021/04/17 03:42:27;;;;;;;3.15;1.40;;;2.90;99.90;;;;;;5082397;28;20936;-71
2021/04/17 03:44:53;;;;;;;3.75;1.60;;;2.90;99.90;;;;;;5087391;28;20288;-69
2021/04/17 03:47:18;;;;;;;1.92;1.20;;;2.90;99.90;;;;;;5083169;28;20206;-71
2021/04/17 03:49:44;;;;;;;2.00;1.40;;;2.90;99.90;;;;;;5084624;28;20253;-71
2021/04/17 03:52:10;;;;;;;5.00;1.60;;;2.90;99.90;;;;;;5085525;28;20607;-72
2021/04/17 03:54:36;;;;;;;2.53;1.52;;;2.90;99.90;;;;;;5082826;28;20220;-72
2021/04/17 03:57:02;;;;;;;6.90;1.48;;;2.90;99.90;;;;;;5084711;28;20204;-71
2021/04/17 03:59:27;;;;;;;6.43;1.40;;;3.00;99.90;;;;;;5083643;28;20227;-71
2021/04/17 04:01:53;;;;;;;3.25;1.48;;;2.90;99.90;;;;;;5081499;28;20702;-69
2021/04/17 04:04:19;;;;;;;2.78;1.45;;;2.90;99.90;;;;;;5081424;28;20725;-70
2021/04/17 04:06:44;;;;;;;3.47;1.40;;;2.90;99.90;;;;;;5078346;28;20303;-72
2021/04/17 04:09:10;;;;;;;5.07;1.38;;;2.90;99.90;;;;;;5083357;28;20222;-72
2021/04/17 04:11:36;;;;;;;5.80;1.55;;;2.80;99.90;;;;;;5065790;28;20196;-72
2021/04/17 04:14:02;;;;;;;2.30;1.40;;;2.90;99.90;;;;;;5080223;28;20526;-72
2021/04/17 04:16:28;;;;;;;2.58;1.35;;;2.90;99.90;;;;;;5083595;28;20694;-72
2021/04/17 04:18:53;;;;;;;2.92;1.45;;;2.90;99.90;;;;;;5082817;28;20275;-70
2021/04/17 04:21:19;;;;;;;1.98;1.30;;;2.90;99.90;;;;;;5065559;28;20196;-71
2021/04/17 04:23:44;;;;;;;2.38;1.60;;;2.90;99.90;;;;;;5082151;28;20196;-71
2021/04/17 04:26:10;;;;;;;6.38;1.40;;;3.00;99.90;;;;;;5085260;28;20211;-71
2021/04/17 04:28:36;;;;;;;3.65;1.50;;;3.10;99.90;;;;;;5080983;28;20196;-71
2021/04/17 04:31:02;;;;;;;3.30;1.50;;;3.10;99.90;;;;;;5082965;28;20249;-72
2021/04/17 04:33:27;;;;;;;2.80;1.55;;;3.10;99.90;;;;;;5062795;28;20862;-70
2021/04/17 04:35:53;;;;;;;7.97;1.50;;;3.20;99.90;;;;;;5082529;28;20211;-72
2021/04/17 04:38:19;;;;;;;4.68;1.50;;;3.20;99.90;;;;;;5084551;28;20224;-70
2021/04/17 04:40:45;;;;;;;4.57;1.40;;;3.10;99.90;;;;;;5082669;28;21176;-72
2021/04/17 04:43:10;;;;;;;2.55;1.60;;;3.20;99.90;;;;;;5081289;28;20217;-71
2021/04/17 04:45:37;;;;;;;4.80;1.50;;;3.10;99.90;;;;;;5084675;28;20196;-71
2021/04/17 04:48:04;;;;;;;4.13;1.40;;;3.20;99.90;;;;;;5080385;28;20245;-72
2021/04/17 04:50:30;;;;;;;3.13;1.30;;;3.10;99.90;;;;;;5079711;28;20542;-72
2021/04/17 04:52:56;;;;;;;5.20;1.40;;;3.20;99.90;;;;;;5065383;28;20257;-70
2021/04/17 04:55:22;;;;;;;3.33;1.60;;;3.20;99.90;;;;;;5083439;28;20276;-71
2021/04/17 04:57:48;;;;;;;3.58;1.40;;;3.30;99.90;;;;;;5082082;28;20188;-71
2021/04/17 05:00:14;;;;;;;1.92;1.52;;;3.30;99.90;;;;;;5083457;28;21281;-70
2021/04/17 05:02:39;;;;;;;4.38;1.42;;;3.30;99.90;;;;;;5081120;28;20258;-69
2021/04/17 05:05:06;;;;;;;4.55;1.60;;;3.40;99.90;;;;;;5080118;28;20224;-71
2021/04/17 05:07:31;;;;;;;4.57;1.60;;;3.30;99.90;;;;;;5068626;28;20220;-72
2021/04/17 05:09:57;;;;;;;1.65;1.38;;;3.50;99.90;;;;;;5084267;28;20242;-71
2021/04/17 05:12:23;;;;;;;2.70;1.70;;;3.50;99.90;;;;;;5083457;28;20662;-72
2021/04/17 05:14:48;;;;;;;5.05;1.70;;;3.60;99.90;;;;;;5078578;28;20294;-72
2021/04/17 05:17:14;;;;;;;2.50;1.60;;;3.60;99.90;;;;;;5083041;28;20223;-70
2021/04/17 05:19:41;;;;;;;4.75;1.50;;;3.70;99.90;;;;;;5081398;28;20280;-71
2021/04/17 05:22:07;;;;;;;2.40;1.30;;;3.70;99.90;;;;;;5060778;28;20192;-72
2021/04/17 05:24:33;;;;;;;2.22;1.60;;;3.80;99.90;;;;;;5080925;28;20692;-72
2021/04/17 05:26:59;;;;;;;2.05;1.60;;;3.80;99.90;;;;;;5063834;28;20215;-71
2021/04/17 05:29:25;;;;;;;1.85;1.40;;;3.80;99.90;;;;;;5080838;28;20738;-72
2021/04/17 05:31:50;;;;;;;2.28;1.38;;;3.90;99.90;;;;;;5081004;28;20191;-71
2021/04/17 05:34:16;;;;;;;4.72;1.63;;;3.90;99.90;;;;;;5064204;28;20261;-70
2021/04/17 05:36:42;;;;;;;1.88;1.30;;;4.00;99.90;;;;;;5074382;28;20238;-72
2021/04/17 05:39:07;;;;;;;1.90;1.50;;;4.10;99.90;;;;;;5084821;28;20279;-71
2021/04/17 05:41:33;;;;;;;4.38;1.50;;;4.20;99.90;;;;;;5059713;28;20214;-72
2021/04/17 05:43:59;;;;;;;2.53;1.33;;;4.20;99.90;;;;;;5083590;28;20627;-71
2021/04/17 05:46:25;;;;;;;2.42;1.40;;;4.30;99.90;;;;;;5079773;28;20227;-72
2021/04/17 05:48:50;;;;;;;2.85;1.40;;;4.40;99.90;;;;;;5060468;28;20201;-72
2021/04/17 05:51:16;;;;;;;3.20;1.55;;;4.50;99.90;;;;;;5081750;28;20199;-72
2021/04/17 05:53:43;;;;;;;2.28;1.60;;;4.60;99.90;;;;;;5084277;28;20197;-71
2021/04/17 05:56:09;;;;;;;2.30;1.40;;;4.70;99.90;;;;;;5089660;28;20681;-70
2021/04/17 05:58:35;;;;;;;2.10;1.45;;;4.80;99.90;;;;;;5087716;28;20193;-69
2021/04/17 06:01:01;;;;;;;2.97;1.50;;;4.90;99.90;;;;;;5087842;28;20328;-72
2021/04/17 06:03:27;;;;;;;1.92;1.40;;;5.00;99.90;;;;;;5083357;28;21062;-71
2021/04/17 06:05:55;;;;;;;4.90;1.75;;;5.10;99.90;;;;;;5085641;28;20291;-72
2021/04/17 06:08:21;;;;;;;1.92;1.30;;;5.20;99.90;;;;;;5088010;28;20277;-72
2021/04/17 06:10:46;;;;;;;1.90;1.30;;;5.20;99.90;;;;;;5089452;28;20232;-73
2021/04/17 06:13:12;;;;;;;6.07;1.30;;;5.40;99.90;;;;;;5084409;28;20208;-72
2021/04/17 06:15:38;;;;;;;2.17;1.27;;;5.50;99.90;;;;;;5075966;28;21300;-72
2021/04/17 06:18:03;;;;;;;2.90;1.52;;;5.50;99.90;;;;;;5080550;28;20203;-71
2021/04/17 06:20:29;;;;;;;2.42;1.50;;;5.60;99.90;;;;;;5088022;28;20260;-71
2021/04/17 06:22:58;;;;;;;3.25;1.50;;;5.60;99.90;;;;;;5076524;28;20204;-69
2021/04/17 06:25:24;;;;;;;2.67;1.20;;;5.70;99.90;;;;;;5079910;28;20203;-71
2021/04/17 06:27:49;;;;;;;2.90;1.40;;;5.90;99.90;;;;;;5078563;28;20204;-72
2021/04/17 06:30:17;;;;;;;5.68;1.42;;;6.00;99.90;;;;;;5057816;28;20199;-72
2021/04/17 06:32:45;;;;;;;3.85;1.30;;;6.10;99.90;;;;;;5083043;28;20300;-72
2021/04/17 06:35:11;;;;;;;5.22;1.55;;;6.20;99.90;;;;;;5062683;28;20241;-72
2021/04/17 06:37:37;;;;;;;2.63;1.70;;;6.30;99.90;;;;;;5081476;28;20225;-72
2021/04/17 06:40:03;;;;;;;2.60;1.20;;;6.40;99.90;;;;;;5080307;28;20297;-70
2021/04/17 06:42:31;;;;;;;2.33;1.35;;;6.50;99.90;;;;;;5082185;28;20201;-70
2021/04/17 06:45:00;;;;;;;1.33;1.20;;;6.40;99.90;;;;;;5066845;28;20960;-71
2021/04/17 06:47:26;;;;;;;2.50;1.67;;;6.50;99.90;;;;;;5081470;28;20225;-69
2021/04/17 06:49:53;;;;;;;4.15;1.35;;;6.70;99.90;;;;;;5079716;28;20203;-72
2021/04/17 06:52:21;;;;;;;2.55;1.55;;;6.80;99.90;;;;;;5073876;28;20200;-71
2021/04/17 06:54:49;;;;;;;3.35;1.50;;;6.90;99.90;;;;;;5071465;28;20296;-73
2021/04/17 06:57:14;;;;;;;3.55;1.30;;;7.00;99.90;;;;;;5056666;28;20208;-72
2021/04/17 06:59:42;;;;;;;1.98;1.30;;;7.10;99.90;;;;;;5077552;28;20192;-70
2021/04/17 07:02:15;;;;;;;2.67;1.30;;;7.20;99.90;;;;;;5078017;28;20227;-71
2021/04/17 07:04:41;;;;;;;2.35;1.42;;;7.30;99.90;;;;;;5072770;28;20324;-72
2021/04/17 07:07:07;;;;;;;1.45;1.08;;;7.50;99.90;;;;;;5071741;28;20248;-72
2021/04/17 07:09:33;;;;;;;2.65;1.48;;;7.70;99.90;;;;;;5076658;28;20225;-71
2021/04/17 07:11:59;;;;;;;2.20;1.40;;;7.80;99.90;;;;;;5069480;28;20230;-71
2021/04/17 07:14:25;;;;;;;3.22;1.30;;;8.00;99.90;;;;;;5078483;28;20876;-73
2021/04/17 07:17:04;;;;;;;1.70;1.20;;;8.10;99.90;;;;;;5068705;28;20232;-73
2021/04/17 07:19:54;;;;;;;3.40;1.40;;;8.30;99.90;;;;;;5073947;28;20761;-71
2021/04/17 07:22:21;;;;;;;2.97;1.35;;;8.50;99.90;;;;;;5060129;28;20196;-70
2021/04/17 07:24:48;;;;;;;2.47;1.10;;;8.60;99.90;;;;;;5069593;28;20258;-71
2021/04/17 07:27:42;;;;;;;4.30;1.23;;;8.70;99.50;;;;;;5074508;28;20206;-71
2021/04/17 07:30:17;;;;;;;3.00;1.20;;;8.70;99.90;;;;;;5067621;28;20273;-69
2021/04/17 07:32:47;;;;;;;6.00;1.33;;;8.80;99.90;;;;;;5069587;28;20270;-70
2021/04/17 07:35:15;;;;;;;2.83;1.33;;;8.90;99.90;;;;;;5071527;28;20584;-69
2021/04/17 07:37:44;;;;;;;2.97;1.63;;;9.10;98.50;;;;;;5071694;28;20196;-74
2021/04/17 07:40:22;;;;;;;1.88;1.35;;;9.20;98.20;;;;;;5074590;28;20201;-72
2021/04/17 07:42:52;;;;;;;2.65;1.33;;;9.30;97.00;;;;;;5069883;28;20191;-72
2021/04/17 07:45:19;;;;;;;2.92;1.40;;;9.40;97.20;;;;;;5067737;28;20193;-71
2021/04/17 07:47:45;;;;;;;3.10;1.67;;;9.50;97.20;;;;;;5075037;28;21075;-73
2021/04/17 07:50:12;;;;;;;2.53;1.45;;;9.70;96.30;;;;;;5074677;28;20216;-74
2021/04/17 07:52:38;;;;;;;2.25;1.25;;;9.90;96.00;;;;;;5076211;28;20195;-72
2021/04/17 07:55:17;;;;;;;3.00;1.30;;;9.90;95.30;;;;;;5073526;28;20217;-71
2021/04/17 07:57:56;;;;;;;2.33;1.33;;;10.10;95.20;;;;;;5077870;28;20200;-72
2021/04/17 08:00:23;;;;;;;2.70;1.38;;;10.20;95.00;;;;;;5068448;28;20229;-71
2021/04/17 08:02:52;;;;;;;5.05;1.35;;;10.50;94.30;;;;;;5077140;28;20300;-70
2021/04/17 08:05:19;;;;;;;3.40;1.20;;;10.60;94.40;;;;;;5051169;28;20204;-71
2021/04/17 08:07:46;;;;;;;3.05;1.20;;;10.90;93.90;;;;;;5081979;28;20662;-72
2021/04/17 08:10:13;;;;;;;1.88;1.20;;;11.00;92.30;;;;;;5071161;28;20947;-72
2021/04/17 08:12:41;;;;;;;2.65;1.30;;;11.20;93.20;;;;;;5075342;28;20219;-72
2021/04/17 08:15:13;;;;;;;1.95;1.10;;;11.50;91.60;;;;;;5073890;28;20733;-70
2021/04/17 08:17:40;;;;;;;5.38;1.33;;;11.60;91.10;;;;;;5054285;28;20192;-72
2021/04/17 08:20:13;;;;;;;1.17;1.08;;;11.70;90.50;;;;;;5068134;28;20295;-71
2021/04/17 08:22:39;;;;;;;3.40;1.33;;;11.80;90.10;;;;;;5069670;28;20277;-72
2021/04/17 08:25:07;;;;;;;4.15;1.20;;;12.00;90.30;;;;;;5047090;28;20670;-71
2021/04/17 08:27:34;;;;;;;3.22;1.20;;;12.10;89.40;;;;;;5065931;28;20282;-71
2021/04/17 08:30:06;;;;;;;3.55;1.10;;;12.30;89.00;;;;;;5050185;28;20196;-71
2021/04/17 08:32:39;;;;;;;4.20;1.20;;;12.20;88.20;;;;;;5066035;28;20311;-72
2021/04/17 08:35:11;;;;;;;4.72;1.10;;;12.40;89.50;;;;;;5066130;28;20770;-71
2021/04/17 08:37:52;;;;;;;3.05;1.10;;;12.60;83.90;;;;;;5065272;28;20837;-73
2021/04/17 08:40:43;;;;;;;1.65;1.08;;;12.60;86.40;;;;;;5069221;28;20194;-71
2021/04/17 08:43:15;;;;;;;3.00;1.02;;;12.80;83.60;;;;;;5061933;28;20216;-71
2021/04/17 08:46:14;;;;;;;1.27;1.17;;;12.90;84.30;;;;;;5070227;28;20554;-74
2021/04/17 08:48:45;;;;;;;1.20;1.10;;;13.00;81.70;;;;;;5069692;28;20204;-74
2021/04/17 08:51:26;;;;;;;1.27;0.98;;;13.20;81.10;;;;;;5055538;28;20231;-72
2021/04/17 08:54:00;;;;;;;2.65;1.00;;;13.20;81.10;;;;;;5067837;28;20199;-73
2021/04/17 08:56:55;;;;;;;1.42;1.08;;;13.30;80.10;;;;;;5072158;28;20233;-70
2021/04/17 08:59:32;;;;;;;5.97;1.17;;;13.50;79.50;;;;;;5071327;28;20824;-73
2021/04/17 09:02:03;;;;;;;1.83;1.02;;;13.90;75.60;;;;;;5075655;28;20227;-73
2021/04/17 09:04:30;;;;;;;1.73;0.98;;;14.20;75.20;;;;;;5077563;28;20273;-73
2021/04/17 09:06:57;;;;;;;2.00;0.93;;;14.30;73.80;;;;;;5075713;28;20275;-73
2021/04/17 09:09:28;;;;;;;3.05;1.38;;;14.60;71.50;;;;;;5082328;28;20354;-73
2021/04/17 09:12:06;;;;;;;5.45;1.13;;;14.70;70.80;;;;;;5075924;28;20188;-71
2021/04/17 09:14:33;;;;;;;1.17;1.00;;;14.80;67.30;;;;;;5076582;28;20208;-73
2021/04/17 09:17:01;;;;;;;1.17;1.00;;;14.90;66.70;;;;;;5069739;28;20204;-74
2021/04/17 09:19:39;;;;;;;2.20;1.00;;;15.00;61.90;;;;;;5054982;28;20197;-73
2021/04/17 09:22:26;;;;;;;1.98;0.90;;;15.10;59.50;;;;;;5071973;28;20281;-74
2021/04/17 09:24:52;;;;;;;3.78;1.17;;;15.30;61.20;;;;;;5050443;28;20606;-70
2021/04/17 09:27:33;;;;;;;1.75;1.00;;;15.40;58.40;;;;;;5082917;28;20257;-71
2021/04/17 09:30:06;;;;;;;3.05;0.93;;;15.40;60.20;;;;;;5079324;28;20322;-71
2021/04/17 09:32:35;;;;;;;4.80;1.10;;;15.70;60.50;;;;;;5055526;28;20233;-71
2021/04/17 09:35:14;;;;;;;1.77;1.00;;;15.90;58.40;;;;;;5074439;28;20288;-74
2021/04/17 09:37:41;;;;;;;0.88;0.80;;;15.90;56.80;;;;;;5072549;28;20718;-70
2021/04/17 09:40:07;;;;;;;0.98;0.80;;;16.00;58.30;;;;;;5075521;28;20496;-72
2021/04/17 09:42:39;;;;;;;4.32;0.93;;;16.10;56.30;;;;;;5075143;28;20206;-72
2021/04/17 09:45:07;;;;;;;1.25;0.90;;;16.10;57.40;;;;;;5074519;28;20217;-71
2021/04/17 09:47:33;;;;;;;3.60;1.00;;;16.20;57.00;;;;;;5068594;28;20996;-73
2021/04/17 09:50:00;;;;;;;2.25;0.90;;;16.20;56.80;;;;;;5058097;28;20196;-72
2021/04/17 09:52:28;;;;;;;2.83;0.90;;;16.30;56.70;;;;;;5075171;28;20808;-73
2021/04/17 09:55:01;;;;;;;0.95;0.80;;;16.50;57.70;;;;;;5078808;28;20215;-73
2021/04/17 09:57:28;;;;;;;3.20;1.10;;;16.90;56.40;;;;;;5074805;28;20192;-72
2021/04/17 09:59:58;;;;;;;1.27;0.80;;;17.10;55.10;;;;;;5064124;28;20283;-73
2021/04/17 10:02:43;;;;;;;1.05;0.90;;;17.30;55.40;;;;;;5080038;28;20239;-71
2021/04/17 10:05:11;;;;;;;3.08;1.63;;;17.20;54.30;;;;;;5081719;28;20226;-74
2021/04/17 10:07:50;;;;;;;2.45;1.40;;;17.30;54.50;;;;;;5081781;28;20722;-72
2021/04/17 10:10:16;;;;;;;2.65;0.95;;;17.40;55.00;;;;;;5073160;28;20683;-72
2021/04/17 10:12:55;;;;;;;1.45;0.90;;;17.40;54.10;;;;;;5075998;28;20204;-73
2021/04/17 10:15:22;;;;;;;1.30;0.88;;;17.30;52.80;;;;;;5068982;28;20211;-72
2021/04/17 10:17:53;;;;;;;1.25;0.90;;;17.20;55.20;;;;;;5075842;28;20212;-73
2021/04/17 10:20:20;;;;;;;0.80;0.80;;;17.40;54.90;;;;;;5078303;28;20188;-72
2021/04/17 10:22:53;;;;;;;2.30;0.93;;;17.30;53.80;;;;;;5079896;28;20192;-72
2021/04/17 10:25:38;;;;;;;1.17;0.80;;;17.70;53.70;;;;;;5082954;28;20196;-71
2021/04/17 10:28:15;;;;;;;0.88;0.70;;;18.00;51.80;;;;;;5080714;28;20236;-72
2021/04/17 10:30:43;;;;;;;5.93;0.82;;;17.40;52.00;;;;;;5082541;28;20199;-72
2021/04/17 10:33:16;;;;;;;2.45;0.80;;;17.50;54.20;;;;;;5076755;28;20200;-73
2021/04/17 10:35:43;;;;;;;1.10;0.90;;;17.90;53.00;;;;;;5074289;28;20203;-72
2021/04/17 10:38:09;;;;;;;1.23;0.75;;;18.10;52.20;;;;;;5078813;28;20196;-72
2021/04/17 10:40:35;;;;;;;1.73;0.90;;;18.10;52.20;;;;;;5079126;28;20282;-72
2021/04/17 10:43:05;;;;;;;1.17;0.73;;;18.00;52.80;;;;;;5080395;28;20192;-71
2021/04/17 10:45:30;;;;;;;1.25;0.90;;;18.30;51.60;;;;;;5076713;28;20196;-73
2021/04/17 10:48:01;;;;;;;5.65;0.80;;;18.00;52.30;;;;;;5088630;28;20207;-71
2021/04/17 10:50:30;;;;;;;15.30;0.98;;;18.40;53.00;;;;;;5075262;28;20219;-72
2021/04/17 10:53:02;;;;;;;1.77;0.82;;;18.30;50.00;;;;;;5079214;28;20200;-71
2021/04/17 10:55:33;;;;;;;1.08;0.73;;;18.30;49.90;;;;;;5076846;28;21064;-73
2021/04/17 10:58:00;;;;;;;2.85;1.00;;;18.30;50.30;;;;;;5064565;28;20585;-73
2021/04/17 11:00:33;;;;;;;5.22;1.30;;;18.50;50.00;;;;;;5062057;28;20837;-72
2021/04/17 11:02:59;;;;;;;1.63;0.90;;;18.60;49.90;;;;;;5050200;28;20248;-73
2021/04/17 11:05:33;;;;;;;1.45;0.80;;;18.80;49.20;;;;;;5047058;28;20285;-73
2021/04/17 11:08:03;;;;;;;1.67;0.80;;;18.80;49.30;;;;;;5047427;28;20207;-73
2021/04/17 11:10:37;;;;;;;1.52;0.90;;;18.50;49.70;;;;;;5029690;28;20614;-72
2021/04/17 11:13:04;;;;;;;2.55;0.93;;;18.70;50.10;;;;;;5050521;28;20219;-74
2021/04/17 11:15:31;;;;;;;2.35;0.80;;;18.90;48.50;;;;;;5046596;28;20304;-73
2021/04/17 11:18:12;;;;;;;3.05;1.00;;;18.60;50.40;;;;;;5049519;28;20699;-72
2021/04/17 11:20:58;;;;;;;1.30;0.80;;;18.70;50.50;;;;;;5053613;28;20220;-74
2021/04/17 11:23:40;;;;;;;2.20;0.70;;;18.80;50.20;;;;;;5046961;28;20200;-70
2021/04/17 11:26:12;;;;;;;1.60;0.80;;;18.50;49.40;;;;;;5056165;28;20193;-73
2021/04/17 11:28:39;;;;;;;2.17;1.08;;;18.80;50.30;;;;;;5044313;28;20205;-72
2021/04/17 11:31:07;;;;;;;0.90;0.70;;;19.10;49.50;;;;;;5048852;28;20214;-72
2021/04/17 11:33:33;;;;;;;1.63;0.90;;;18.80;49.90;;;;;;5045725;28;20200;-74
2021/04/17 11:35:58;;;;;;;2.03;0.80;;;18.60;47.30;;;;;;5043899;28;20251;-69
2021/04/17 11:38:24;;;;;;;0.70;0.63;;;18.90;54.10;;;;;;5040651;28;20198;-70
2021/04/17 11:40:50;;;;;;;1.27;0.70;;;19.40;49.20;;;;;;5058316;28;20203;-72
2021/04/17 11:43:16;;;;;;;1.90;0.80;;;19.60;47.70;;;;;;5044483;28;20200;-73
2021/04/17 11:45:42;;;;;;;2.10;0.90;;;19.90;47.40;;;;;;5048113;28;20311;-70
2021/04/17 11:48:08;;;;;;;1.00;0.73;;;20.20;50.20;;;;;;5048124;28;20200;-71
2021/04/17 11:50:34;;;;;;;1.15;0.80;;;20.70;46.30;;;;;;5044096;28;20207;-72
2021/04/17 11:53:00;;;;;;;1.42;0.75;;;20.70;46.50;;;;;;5055508;28;20204;-71
2021/04/17 11:55:26;;;;;;;1.70;0.80;;;20.40;45.30;;;;;;5052627;28;20205;-73
2021/04/17 11:57:52;;;;;;;1.73;0.90;;;20.40;46.20;;;;;;5047985;28;20204;-71
2021/04/17 12:00:18;;;;;;;1.55;0.90;;;20.10;49.00;;;;;;5048427;28;20285;-71
2021/04/17 12:02:44;;;;;;;1.75;0.77;;;19.70;48.20;;;;;;5078746;28;20231;-72
2021/04/17 12:05:11;;;;;;;1.38;0.65;;;19.70;47.20;;;;;;5083001;28;20212;-71
2021/04/17 12:07:37;;;;;;;1.67;0.82;;;19.80;45.70;;;;;;5072077;28;20707;-72
2021/04/17 12:10:04;;;;;;;4.72;0.80;;;19.80;45.80;;;;;;5082314;28;20200;-72
2021/04/17 12:12:29;;;;;;;1.15;0.80;;;20.10;47.90;;;;;;5073431;28;20381;-72
2021/04/17 12:14:57;;;;;;;1.00;0.80;;;20.40;49.00;;;;;;5076236;28;20808;-71
2021/04/17 12:17:23;;;;;;;3.67;0.82;;;20.40;45.60;;;;;;5060072;28;20631;-71
2021/04/17 12:19:48;;;;;;;0.60;0.60;;;20.20;47.20;;;;;;5076271;28;20196;-72
2021/04/17 12:22:14;;;;;;;1.90;0.90;;;20.20;45.70;;;;;;5074018;28;20306;-71
2021/04/17 12:24:40;;;;;;;1.77;0.80;;;20.00;47.70;;;;;;5076609;28;20208;-71
2021/04/17 12:27:06;;;;;;;2.90;0.80;;;20.00;46.60;;;;;;5079524;28;20756;-71
2021/04/17 12:29:32;;;;;;;1.35;0.73;;;20.00;47.20;;;;;;5076231;28;20567;-71
2021/04/17 12:31:58;;;;;;;1.85;0.80;;;20.00;47.30;;;;;;5074791;28;20227;-70
2021/04/17 12:34:24;;;;;;;1.52;0.70;;;19.80;48.00;;;;;;5072312;28;20200;-71
2021/04/17 12:36:50;;;;;;;1.95;0.70;;;19.90;47.80;;;;;;5074154;28;20207;-73
2021/04/17 12:39:15;;;;;;;1.85;1.00;;;20.20;47.30;;;;;;5075291;28;20190;-71
2021/04/17 12:41:42;;;;;;;2.40;0.85;;;20.80;48.10;;;;;;5080535;28;20196;-72
2021/04/17 12:44:10;;;;;;;1.60;0.95;;;20.60;47.70;;;;;;5078939;28;20204;-71
2021/04/17 12:46:38;;;;;;;1.25;0.80;;;21.00;45.60;;;;;;5076472;28;20789;-73
2021/04/17 12:49:07;;;;;;;1.48;0.70;;;20.90;45.50;;;;;;5071676;28;20200;-72
2021/04/17 12:51:33;;;;;;;4.15;1.02;;;20.40;46.60;;;;;;5070425;28;20283;-73
2021/04/17 12:53:59;;;;;;;1.02;0.90;;;21.00;45.50;;;;;;5072748;28;20630;-73
2021/04/17 12:56:26;;;;;;;1.80;0.98;;;20.60;46.60;;;;;;5075740;28;20242;-72
2021/04/17 12:58:52;;;;;;;5.30;1.00;;;20.80;47.20;;;;;;5076247;28;20200;-72
2021/04/17 13:01:18;;;;;;;2.80;0.90;;;21.20;45.30;;;;;;5075883;28;20537;-73